Time;durP1;ratioP1;P1;durP2;ratioP2;P2;SDS_P1;SDS_P2;PMS_P1;PMS_P2;Temp;Humidity;BMP_temperature;BMP_pressure;BME280_temperature;BME280_humidity;BME280_pressure;Samples;Min_cycle;Max_cycle;Signal;HPM_P1;HPM_P2
2021/12/02 00:02:23;;;;;;;3.72;0.95;;;4.10;99.90;;;;;;4961122;28;20067;-65
2021/12/02 00:04:49;;;;;;;2.70;1.00;;;4.10;99.90;;;;;;4970070;28;20133;-65
2021/12/02 00:07:14;;;;;;;7.20;1.15;;;4.10;99.90;;;;;;5000210;28;20039;-65
2021/12/02 00:09:40;;;;;;;4.63;1.17;;;4.00;99.90;;;;;;4969930;28;20043;-66
2021/12/02 00:12:07;;;;;;;5.43;1.20;;;4.00;99.90;;;;;;4967327;28;20487;-65
2021/12/02 00:14:43;;;;;;;5.90;0.90;;;4.00;99.90;;;;;;4971627;28;20039;-65
2021/12/02 00:17:26;;;;;;;2.88;0.98;;;4.00;99.90;;;;;;4975132;28;20039;-65
2021/12/02 00:23:11;;;;;;;4.22;0.75;;;4.00;99.90;;;;;;4998846;28;20498;-65
2021/12/02 00:25:37;;;;;;;5.35;0.90;;;4.00;99.90;;;;;;4982195;28;20125;-65
2021/12/02 00:28:04;;;;;;;7.38;1.20;;;4.00;99.90;;;;;;4968387;28;20053;-66
2021/12/02 00:30:32;;;;;;;5.93;1.20;;;4.00;99.90;;;;;;4970889;28;20043;-66
2021/12/02 00:33:00;;;;;;;4.45;0.90;;;3.90;99.90;;;;;;4996531;28;20134;-65
2021/12/02 00:35:26;;;;;;;5.13;1.05;;;3.90;99.90;;;;;;4968880;28;20081;-65
2021/12/02 00:37:53;;;;;;;3.45;0.77;;;3.90;99.90;;;;;;4967993;28;20051;-65
2021/12/02 00:40:19;;;;;;;8.30;1.38;;;3.90;99.90;;;;;;4977234;28;20074;-65
2021/12/02 00:42:45;;;;;;;5.20;1.02;;;3.90;99.90;;;;;;4968556;28;20081;-65
2021/12/02 00:45:11;;;;;;;5.40;0.90;;;3.90;99.90;;;;;;4967632;28;20034;-65
2021/12/02 00:47:38;;;;;;;5.18;0.98;;;3.90;99.90;;;;;;4969567;28;20093;-65
2021/12/02 00:50:05;;;;;;;10.43;1.23;;;3.90;99.90;;;;;;4988219;28;20049;-65
2021/12/02 00:52:31;;;;;;;4.90;1.10;;;3.90;99.90;;;;;;4966630;28;20100;-65
2021/12/02 00:54:57;;;;;;;6.43;1.17;;;3.90;99.90;;;;;;4966196;28;20129;-65
2021/12/02 00:57:25;;;;;;;6.20;1.63;;;3.80;99.90;;;;;;4975326;28;20130;-66
2021/12/02 00:59:53;;;;;;;5.25;1.80;;;3.80;99.90;;;;;;4969591;28;20053;-65
2021/12/02 01:02:20;;;;;;;8.70;1.67;;;3.80;99.90;;;;;;4968284;28;20194;-65
2021/12/02 01:04:48;;;;;;;9.70;1.60;;;3.80;99.90;;;;;;4972345;28;20051;-65
2021/12/02 01:07:13;;;;;;;8.18;1.52;;;3.80;99.90;;;;;;4994017;28;20094;-65
2021/12/02 01:09:40;;;;;;;10.18;1.40;;;3.80;99.90;;;;;;4959297;28;20051;-65
2021/12/02 01:12:06;;;;;;;10.15;1.88;;;3.70;99.90;;;;;;4968367;28;20062;-65
2021/12/02 01:14:32;;;;;;;9.27;1.50;;;3.70;99.90;;;;;;4967550;28;20050;-65
2021/12/02 01:16:58;;;;;;;11.35;1.80;;;3.70;99.90;;;;;;4974397;28;20047;-65
2021/12/02 01:19:24;;;;;;;8.50;1.80;;;3.70;99.90;;;;;;4971319;28;20124;-65
2021/12/02 01:21:51;;;;;;;11.38;1.65;;;3.60;99.90;;;;;;5007860;28;20124;-65
2021/12/02 01:24:20;;;;;;;8.63;1.65;;;3.60;99.90;;;;;;4968095;28;20046;-66
2021/12/02 01:26:52;;;;;;;5.63;1.30;;;3.60;99.90;;;;;;4974112;28;20058;-66
2021/12/02 01:29:22;;;;;;;7.60;1.20;;;3.60;99.90;;;;;;4966754;28;20050;-67
2021/12/02 01:31:54;;;;;;;6.97;1.40;;;3.50;99.90;;;;;;4979104;28;20491;-64
2021/12/02 01:34:25;;;;;;;5.72;1.45;;;3.50;99.90;;;;;;4987956;28;20058;-65
2021/12/02 01:36:52;;;;;;;5.03;1.13;;;3.50;99.90;;;;;;4967711;28;20041;-66
2021/12/02 01:39:19;;;;;;;8.85;1.25;;;3.50;99.90;;;;;;4967651;28;20093;-65
2021/12/02 01:41:55;;;;;;;7.40;1.00;;;3.50;99.90;;;;;;5001963;28;20109;-65
2021/12/02 01:44:23;;;;;;;6.25;0.90;;;3.50;99.90;;;;;;4969695;28;20066;-65
2021/12/02 01:46:52;;;;;;;12.55;1.38;;;3.50;99.90;;;;;;4982453;28;20050;-65
2021/12/02 01:49:20;;;;;;;5.25;1.25;;;3.50;99.90;;;;;;4970163;28;20042;-65
2021/12/02 01:51:49;;;;;;;3.72;1.25;;;3.50;99.90;;;;;;4953670;28;20533;-65
2021/12/02 01:54:20;;;;;;;8.32;1.27;;;3.50;99.90;;;;;;4969396;28;20042;-65
2021/12/02 01:57:07;;;;;;;7.47;1.13;;;3.50;99.90;;;;;;4967176;28;20057;-65
2021/12/02 01:59:34;;;;;;;;;;;3.60;99.90;;;;;;4974679;28;20046;-65
2021/12/02 02:02:09;;;;;;;10.63;1.60;;;3.60;99.90;;;;;;4970305;28;19929;-65
2021/12/02 02:04:35;;;;;;;5.70;0.98;;;3.60;99.90;;;;;;4984603;28;20400;-65
2021/12/02 02:07:11;;;;;;;5.38;0.90;;;3.60;99.90;;;;;;4951814;28;20459;-65
2021/12/02 02:09:37;;;;;;;1.88;0.65;;;3.60;99.90;;;;;;5011315;28;20049;-65
2021/12/02 02:12:09;;;;;;;3.13;0.70;;;3.50;99.90;;;;;;4973127;28;20480;-65
2021/12/02 02:14:36;;;;;;;2.45;0.70;;;3.40;99.90;;;;;;5058742;28;20097;-66
2021/12/02 02:17:29;;;;;;;2.40;0.95;;;3.30;99.90;;;;;;4978252;28;20078;-65
2021/12/02 02:19:50;;;;;;;3.58;0.85;;;3.30;99.90;;;;;;4984227;28;20043;-65
2021/12/02 02:22:20;;;;;;;5.47;1.02;;;3.10;99.90;;;;;;4977513;28;20050;-65
2021/12/02 02:24:46;;;;;;;1.55;0.50;;;3.10;99.90;;;;;;5022998;28;20046;-66
2021/12/02 02:27:12;;;;;;;2.05;0.45;;;2.90;99.90;;;;;;5004809;28;20572;-67
2021/12/02 02:29:38;;;;;;;1.63;0.40;;;2.80;99.90;;;;;;4973358;28;20214;-68
2021/12/02 02:32:04;;;;;;;2.17;0.50;;;2.70;99.90;;;;;;5035691;28;20721;-69
2021/12/02 02:34:31;;;;;;;2.35;0.50;;;2.70;99.90;;;;;;4982214;28;20050;-70
2021/12/02 02:37:00;;;;;;;1.98;0.65;;;2.70;99.90;;;;;;4989743;28;20047;-71
2021/12/02 02:39:29;;;;;;;1.10;0.63;;;2.70;99.90;;;;;;4984775;28;20047;-71
2021/12/02 02:41:58;;;;;;;2.72;0.30;;;2.70;99.90;;;;;;4968878;28;20402;-71
2021/12/02 02:44:26;;;;;;;1.58;0.38;;;2.60;99.90;;;;;;4994238;28;20043;-72
2021/12/02 02:46:52;;;;;;;2.50;0.40;;;2.60;99.90;;;;;;5001553;28;20117;-71
2021/12/02 02:49:18;;;;;;;2.83;0.52;;;2.60;99.90;;;;;;4983740;28;20046;-71
2021/12/02 02:51:44;;;;;;;1.70;0.47;;;2.50;99.90;;;;;;4968588;28;20068;-72
2021/12/02 02:54:13;;;;;;;1.23;0.32;;;2.50;99.90;;;;;;5034562;28;20043;-72
2021/12/02 02:56:45;;;;;;;3.22;0.50;;;2.40;99.90;;;;;;4983898;28;20069;-71
2021/12/02 03:12:50;;;;;;;2.67;0.50;;;2.20;99.90;;;;;;4970535;28;20097;-70
2021/12/02 03:17:44;;;;;;;2.85;0.50;;;2.20;99.90;;;;;;4990767;28;20041;-69
2021/12/02 03:20:10;;;;;;;2.95;0.70;;;2.20;99.90;;;;;;4979389;28;20046;-69
2021/12/02 03:22:36;;;;;;;3.13;0.80;;;2.20;99.90;;;;;;4977012;28;20062;-69
2021/12/02 03:25:04;;;;;;;5.07;0.55;;;2.20;99.90;;;;;;5006553;28;20466;-69
2021/12/02 03:27:30;;;;;;;3.97;0.60;;;2.20;99.90;;;;;;4957750;28;20143;-69
2021/12/02 03:29:55;;;;;;;5.05;0.88;;;2.20;99.90;;;;;;4975079;28;20122;-68
2021/12/02 03:32:21;;;;;;;2.45;0.57;;;2.20;99.90;;;;;;4994359;28;20054;-68
2021/12/02 03:34:47;;;;;;;6.13;0.50;;;2.20;99.90;;;;;;4974088;28;20050;-68
2021/12/02 03:37:13;;;;;;;2.00;0.30;;;2.20;99.90;;;;;;4967954;28;20035;-68
2021/12/02 03:39:39;;;;;;;0.52;0.30;;;2.20;99.90;;;;;;4973887;28;20481;-68
2021/12/02 03:42:05;;;;;;;3.55;0.90;;;2.10;99.90;;;;;;4967102;28;20051;-68
2021/12/02 03:44:31;;;;;;;4.05;0.60;;;2.10;99.90;;;;;;5008631;28;20079;-67
2021/12/02 03:46:56;;;;;;;2.33;0.43;;;2.10;99.90;;;;;;5005666;28;20034;-67
2021/12/02 03:49:22;;;;;;;1.70;0.55;;;2.10;99.90;;;;;;4983909;28;20091;-67
2021/12/02 03:51:49;;;;;;;4.32;0.70;;;2.10;99.90;;;;;;4969294;28;20047;-67
2021/12/02 03:54:15;;;;;;;2.10;0.47;;;2.10;99.90;;;;;;4965605;28;20050;-67
2021/12/02 03:56:41;;;;;;;2.20;0.60;;;2.10;99.90;;;;;;4987892;28;20042;-67
2021/12/02 03:59:07;;;;;;;6.15;0.70;;;2.10;99.90;;;;;;5036643;28;20066;-67
2021/12/02 04:01:33;;;;;;;2.65;0.47;;;2.20;99.90;;;;;;4970017;28;20043;-66
2021/12/02 04:03:58;;;;;;;4.72;0.70;;;2.20;99.90;;;;;;4966958;28;20400;-66
2021/12/02 04:06:24;;;;;;;1.45;0.60;;;2.20;99.90;;;;;;4967953;28;20080;-67
2021/12/02 04:09:03;;;;;;;2.00;0.70;;;2.30;99.90;;;;;;4967505;28;20219;-66
2021/12/02 04:11:55;;;;;;;3.58;0.60;;;2.30;99.90;;;;;;4967917;28;20047;-66
2021/12/02 04:14:34;;;;;;;2.85;0.50;;;2.30;99.90;;;;;;4955707;28;20050;-66
2021/12/02 04:17:05;;;;;;;3.50;0.80;;;2.40;99.90;;;;;;4973325;28;20156;-66
2021/12/02 04:19:31;;;;;;;3.30;0.90;;;2.30;99.90;;;;;;4998022;28;20718;-66
2021/12/02 04:21:59;;;;;;;1.85;0.40;;;2.30;99.90;;;;;;4982756;28;20043;-66
2021/12/02 04:24:27;;;;;;;2.72;0.73;;;2.40;99.90;;;;;;4988929;28;20058;-66
2021/12/02 04:26:53;;;;;;;2.45;0.60;;;2.60;99.90;;;;;;5028704;28;20043;-66
2021/12/02 04:29:19;;;;;;;2.53;0.63;;;2.40;99.90;;;;;;4984330;28;20041;-66
2021/12/02 04:31:45;;;;;;;3.67;0.55;;;2.40;99.90;;;;;;4993321;28;20058;-66
2021/12/02 04:34:12;;;;;;;1.15;0.45;;;2.50;99.90;;;;;;4991087;28;20043;-66
2021/12/02 04:36:38;;;;;;;2.95;0.77;;;2.50;99.90;;;;;;4975391;28;20042;-66
2021/12/02 04:39:04;;;;;;;3.28;0.60;;;2.50;99.90;;;;;;4974359;28;20046;-66
2021/12/02 04:41:30;;;;;;;1.85;0.70;;;2.50;99.90;;;;;;4973567;28;20042;-66
2021/12/02 04:43:56;;;;;;;1.05;0.77;;;2.60;99.90;;;;;;4977117;28;20161;-65
2021/12/02 04:46:22;;;;;;;3.70;0.40;;;2.60;99.90;;;;;;4974828;28;20116;-66
2021/12/02 04:48:47;;;;;;;1.52;0.50;;;2.60;99.90;;;;;;5003226;28;20050;-66
2021/12/02 04:51:13;;;;;;;3.67;0.50;;;2.60;99.90;;;;;;4994177;28;20096;-66
2021/12/02 04:53:39;;;;;;;2.95;0.57;;;2.70;99.90;;;;;;4964376;28;20068;-66
2021/12/02 04:56:04;;;;;;;2.95;0.50;;;2.70;99.90;;;;;;4979484;28;20039;-66
2021/12/02 04:58:30;;;;;;;2.50;0.45;;;2.70;99.90;;;;;;4971477;28;20108;-66
2021/12/02 05:00:56;;;;;;;1.13;0.40;;;2.80;99.90;;;;;;4985980;28;20034;-66
2021/12/02 05:03:23;;;;;;;2.63;0.55;;;2.70;99.90;;;;;;4972967;28;20059;-66
2021/12/02 05:05:48;;;;;;;2.50;0.43;;;2.70;99.90;;;;;;4970037;28;20053;-66
2021/12/02 05:08:14;;;;;;;2.60;0.50;;;2.70;99.90;;;;;;4974882;28;20043;-65
2021/12/02 05:10:40;;;;;;;1.58;0.50;;;2.70;99.90;;;;;;5000273;28;20069;-65
2021/12/02 05:13:06;;;;;;;2.65;0.55;;;2.70;99.90;;;;;;4968643;28;20042;-65
2021/12/02 05:15:32;;;;;;;4.75;1.00;;;2.70;99.90;;;;;;4980341;28;20050;-66
2021/12/02 05:17:57;;;;;;;4.47;0.47;;;2.70;99.90;;;;;;4995017;28;20031;-66
2021/12/02 05:20:23;;;;;;;4.32;0.57;;;2.70;99.90;;;;;;4983627;28;20137;-66
2021/12/02 05:22:49;;;;;;;1.83;0.35;;;2.70;99.90;;;;;;4968852;28;20058;-65
2021/12/02 05:25:16;;;;;;;1.75;0.50;;;2.90;99.90;;;;;;5006993;28;20473;-65
2021/12/02 05:27:42;;;;;;;4.53;0.60;;;2.70;99.90;;;;;;4982645;28;20100;-66
2021/12/02 05:30:08;;;;;;;3.88;0.45;;;2.60;99.90;;;;;;4985378;28;20429;-65
2021/12/02 05:32:34;;;;;;;0.52;0.30;;;2.50;99.90;;;;;;4991567;28;20157;-66
2021/12/02 05:35:00;;;;;;;1.67;0.40;;;2.50;99.90;;;;;;5003952;28;20072;-65
2021/12/02 05:37:26;;;;;;;2.03;0.40;;;2.40;99.90;;;;;;4969975;28;20042;-65
2021/12/02 05:39:52;;;;;;;1.73;0.30;;;2.50;99.90;;;;;;5032778;28;20050;-65
2021/12/02 05:42:18;;;;;;;1.38;0.30;;;2.40;99.90;;;;;;4967046;28;20495;-66
2021/12/02 05:44:45;;;;;;;2.65;0.50;;;2.40;99.90;;;;;;4967556;28;20095;-66
2021/12/02 05:47:11;;;;;;;2.45;0.40;;;2.40;99.90;;;;;;4990504;28;20054;-65
2021/12/02 05:49:40;;;;;;;1.77;0.50;;;2.40;99.90;;;;;;4985758;28;20061;-66
2021/12/02 05:52:06;;;;;;;1.00;0.45;;;2.40;99.90;;;;;;4986433;28;20150;-66
2021/12/02 05:54:32;;;;;;;1.30;0.47;;;2.40;99.90;;;;;;4992257;28;20050;-66
2021/12/02 05:56:58;;;;;;;2.85;0.35;;;2.40;99.90;;;;;;4971366;28;20047;-66
2021/12/02 05:59:24;;;;;;;0.85;0.40;;;2.40;99.90;;;;;;4968531;28;20051;-66
2021/12/02 06:01:51;;;;;;;0.65;0.55;;;2.50;99.90;;;;;;4969290;28;20047;-66
2021/12/02 06:04:17;;;;;;;1.83;0.40;;;2.50;99.90;;;;;;4972410;28;20109;-67
2021/12/02 06:06:43;;;;;;;1.52;0.40;;;2.50;99.90;;;;;;5017236;28;20726;-66
2021/12/02 06:09:09;;;;;;;0.47;0.28;;;2.50;99.90;;;;;;4968330;28;20487;-66
2021/12/02 06:11:34;;;;;;;2.05;0.65;;;2.50;99.90;;;;;;4971011;28;20054;-66
2021/12/02 06:14:00;;;;;;;2.08;0.82;;;2.50;99.90;;;;;;5039378;28;20475;-66
2021/12/02 06:16:26;;;;;;;2.50;1.20;;;2.50;99.90;;;;;;4989772;28;20073;-67
2021/12/02 06:18:51;;;;;;;1.23;0.60;;;2.50;99.90;;;;;;4972184;28;20047;-66
2021/12/02 06:21:17;;;;;;;1.95;0.93;;;2.50;99.90;;;;;;4971381;28;20441;-67
2021/12/02 06:23:43;;;;;;;3.45;0.80;;;2.50;99.90;;;;;;4955290;28;20441;-67
2021/12/02 06:26:09;;;;;;;9.35;1.45;;;2.40;99.90;;;;;;4980659;28;20049;-65
2021/12/02 06:28:35;;;;;;;4.15;1.15;;;2.40;99.90;;;;;;4970636;28;20039;-66
2021/12/02 06:31:02;;;;;;;1.50;0.90;;;2.40;99.90;;;;;;4971311;28;20042;-66
2021/12/02 06:33:31;;;;;;;1.80;0.60;;;2.40;99.90;;;;;;5003992;28;20040;-66
2021/12/02 06:35:57;;;;;;;1.20;0.70;;;2.40;99.90;;;;;;4969070;28;20040;-66
2021/12/02 06:38:23;;;;;;;2.58;0.60;;;2.30;99.90;;;;;;4974601;28;20042;-66
2021/12/02 06:40:50;;;;;;;1.80;0.50;;;2.30;99.90;;;;;;4974832;28;20058;-67
2021/12/02 06:43:16;;;;;;;1.20;0.65;;;2.20;99.90;;;;;;4994658;28;20069;-66
2021/12/02 06:45:42;;;;;;;1.75;0.75;;;2.20;99.90;;;;;;4999939;28;20046;-67
2021/12/02 06:48:08;;;;;;;0.82;0.52;;;2.20;99.90;;;;;;5030470;28;20032;-68
2021/12/02 06:50:36;;;;;;;1.48;0.60;;;2.10;99.90;;;;;;5007095;28;20065;-67
2021/12/02 06:53:02;;;;;;;1.95;0.70;;;2.10;99.90;;;;;;4998643;28;20043;-67
2021/12/02 06:55:28;;;;;;;0.90;0.55;;;2.10;99.90;;;;;;4965903;28;20035;-67
2021/12/02 06:57:53;;;;;;;0.75;0.65;;;2.00;99.90;;;;;;4968397;28;20096;-66
2021/12/02 07:00:21;;;;;;;0.93;0.60;;;1.90;99.90;;;;;;4970711;28;20050;-66
2021/12/02 07:02:48;;;;;;;1.67;0.88;;;1.90;99.90;;;;;;5031051;28;20051;-67
2021/12/02 07:05:16;;;;;;;1.52;1.00;;;1.90;99.90;;;;;;4969789;28;20613;-66
2021/12/02 07:07:45;;;;;;;1.58;0.70;;;1.80;99.90;;;;;;4965903;28;20051;-67
2021/12/02 07:10:17;;;;;;;1.17;0.60;;;1.80;99.90;;;;;;4970423;28;20043;-67
2021/12/02 07:12:45;;;;;;;1.83;0.70;;;1.80;99.90;;;;;;4968477;28;20043;-67
2021/12/02 07:15:19;;;;;;;1.10;0.60;;;1.80;99.90;;;;;;4969479;28;20108;-67
2021/12/02 07:17:46;;;;;;;0.98;0.55;;;1.70;99.90;;;;;;4999274;28;20506;-68
2021/12/02 07:20:13;;;;;;;0.47;0.30;;;1.70;99.90;;;;;;4964454;28;20050;-67
2021/12/02 07:22:39;;;;;;;1.73;0.50;;;1.70;99.90;;;;;;5035298;28;20035;-68
2021/12/02 07:25:06;;;;;;;0.77;0.40;;;1.70;99.90;;;;;;4971171;28;20069;-67
2021/12/02 07:27:32;;;;;;;0.70;0.43;;;1.80;99.90;;;;;;4949342;28;20038;-67
2021/12/02 07:29:57;;;;;;;0.55;0.43;;;1.80;99.90;;;;;;5002819;28;20055;-67
2021/12/02 07:32:33;;;;;;;1.42;0.60;;;1.80;99.90;;;;;;5036395;28;20046;-67
2021/12/02 07:35:02;;;;;;;1.50;0.52;;;3.10;99.90;;;;;;5004709;28;20043;-67
2021/12/02 07:37:29;;;;;;;1.10;0.60;;;1.90;99.90;;;;;;4971066;28;20071;-67
2021/12/02 07:39:55;;;;;;;1.55;0.70;;;1.90;99.90;;;;;;4970210;28;20054;-68
2021/12/02 07:42:21;;;;;;;0.85;0.50;;;2.00;99.90;;;;;;4972134;28;20049;-67
2021/12/02 07:44:47;;;;;;;2.60;0.80;;;2.00;99.90;;;;;;4970515;28;20129;-67
2021/12/02 07:47:13;;;;;;;2.63;1.00;;;2.10;99.90;;;;;;4992420;28;20120;-67
2021/12/02 07:49:40;;;;;;;3.45;0.82;;;2.10;99.90;;;;;;4973847;28;20046;-67
2021/12/02 07:52:08;;;;;;;3.15;0.82;;;2.20;99.90;;;;;;4969502;28;20442;-67
2021/12/02 07:54:34;;;;;;;2.40;0.98;;;2.30;99.90;;;;;;4989614;28;20054;-66
2021/12/02 07:57:00;;;;;;;3.20;0.80;;;2.30;99.90;;;;;;5040859;28;20057;-67
2021/12/02 07:59:26;;;;;;;3.20;0.85;;;2.30;99.90;;;;;;4954152;28;20477;-67
2021/12/02 08:02:00;;;;;;;1.27;0.75;;;2.40;99.90;;;;;;4988861;28;20063;-66
2021/12/02 08:04:29;;;;;;;2.40;0.88;;;2.40;99.90;;;;;;4973312;28;20045;-66
2021/12/02 08:06:55;;;;;;;1.98;0.60;;;2.50;99.90;;;;;;4965545;28;20067;-66
2021/12/02 08:09:20;;;;;;;2.25;0.82;;;2.50;99.90;;;;;;4966428;28;20043;-67
2021/12/02 08:11:46;;;;;;;1.10;0.60;;;2.60;99.90;;;;;;4971205;28;20066;-67
2021/12/02 08:14:15;;;;;;;1.42;0.60;;;2.60;99.90;;;;;;4960648;28;20501;-67
2021/12/02 08:16:42;;;;;;;0.40;0.25;;;2.60;99.90;;;;;;4972636;28;20450;-66
2021/12/02 08:19:08;;;;;;;0.88;0.25;;;2.70;99.90;;;;;;4969094;28;20141;-66
2021/12/02 08:21:34;;;;;;;3.13;0.40;;;2.70;99.90;;;;;;4969472;28;20576;-67
2021/12/02 08:23:59;;;;;;;2.28;0.70;;;2.70;99.90;;;;;;4969041;28;20885;-66
2021/12/02 08:26:25;;;;;;;1.13;0.38;;;2.70;99.90;;;;;;4970325;28;20368;-67
2021/12/02 08:28:51;;;;;;;1.40;0.22;;;2.70;99.90;;;;;;4969489;28;20483;-67
2021/12/02 08:31:16;;;;;;;0.60;0.40;;;2.70;99.90;;;;;;4970901;28;20046;-67
2021/12/02 08:33:42;;;;;;;2.55;0.52;;;2.70;99.90;;;;;;4969303;28;20467;-66
2021/12/02 08:36:08;;;;;;;2.25;0.60;;;2.70;99.90;;;;;;4969307;28;20524;-66
2021/12/02 08:38:35;;;;;;;0.85;0.65;;;2.70;99.90;;;;;;4968603;28;20045;-67
2021/12/02 08:41:01;;;;;;;1.10;0.60;;;2.70;99.90;;;;;;4953191;28;20495;-67
2021/12/02 08:43:29;;;;;;;0.93;0.60;;;2.60;99.90;;;;;;4969003;28;20047;-66
2021/12/02 08:45:55;;;;;;;1.67;0.50;;;2.70;99.90;;;;;;4985687;28;20092;-67
2021/12/02 08:48:21;;;;;;;3.60;0.57;;;2.60;99.90;;;;;;4968702;28;20043;-66
2021/12/02 08:50:47;;;;;;;2.17;0.50;;;2.60;99.90;;;;;;4966690;28;20051;-67
2021/12/02 08:53:13;;;;;;;1.80;0.60;;;2.60;99.90;;;;;;4968611;28;20165;-67
2021/12/02 08:55:40;;;;;;;2.72;0.60;;;2.50;99.90;;;;;;4969109;28;20054;-67
2021/12/02 08:58:09;;;;;;;0.85;0.38;;;2.50;99.90;;;;;;4969153;28;20430;-66
2021/12/02 09:00:36;;;;;;;1.05;0.40;;;2.50;99.90;;;;;;4970413;28;20050;-67
2021/12/02 09:03:05;;;;;;;2.03;0.50;;;2.50;99.90;;;;;;4969148;28;20042;-66
2021/12/02 09:05:31;;;;;;;4.40;0.85;;;2.40;99.90;;;;;;4969029;28;20499;-67
2021/12/02 09:07:56;;;;;;;1.30;0.82;;;2.30;99.90;;;;;;4968857;28;20053;-67
2021/12/02 09:10:22;;;;;;;2.47;1.08;;;2.30;99.90;;;;;;4964891;28;20042;-66
2021/12/02 09:12:51;;;;;;;4.28;0.98;;;2.30;99.90;;;;;;4975267;28;20453;-66
2021/12/02 09:15:17;;;;;;;3.08;0.98;;;2.30;99.90;;;;;;4965926;28;20118;-66
2021/12/02 09:17:44;;;;;;;3.35;1.10;;;2.30;99.90;;;;;;4967823;28;20043;-66
2021/12/02 09:20:11;;;;;;;2.03;1.00;;;2.40;99.90;;;;;;4969333;28;20434;-66
2021/12/02 09:22:37;;;;;;;4.63;1.35;;;2.40;99.90;;;;;;4971747;28;20110;-66
2021/12/02 09:25:04;;;;;;;2.15;1.20;;;2.50;99.90;;;;;;4972435;28;20046;-66
2021/12/02 09:27:33;;;;;;;2.08;1.08;;;2.50;99.90;;;;;;4970963;28;20050;-67
2021/12/02 09:29:59;;;;;;;3.15;1.23;;;2.60;99.90;;;;;;4971477;28;20480;-66
2021/12/02 09:32:25;;;;;;;2.60;1.20;;;2.70;99.90;;;;;;4972366;28;20043;-66
2021/12/02 09:34:51;;;;;;;2.40;1.50;;;2.70;99.90;;;;;;4993152;28;20494;-67
2021/12/02 09:37:16;;;;;;;3.67;1.30;;;2.80;99.90;;;;;;4972038;28;20058;-67
2021/12/02 09:39:42;;;;;;;3.83;1.25;;;2.90;99.90;;;;;;5039752;28;20043;-66
2021/12/02 09:42:10;;;;;;;4.25;1.35;;;3.00;99.90;;;;;;4955730;28;20126;-66
2021/12/02 09:44:43;;;;;;;3.85;1.10;;;3.00;99.90;;;;;;4972380;28;20505;-66
2021/12/02 09:47:09;;;;;;;2.47;1.05;;;3.10;99.90;;;;;;4971571;28;20042;-67
2021/12/02 09:49:35;;;;;;;4.30;1.13;;;3.20;99.90;;;;;;4971477;28;20522;-66
2021/12/02 09:52:08;;;;;;;3.35;0.93;;;3.20;99.90;;;;;;4971144;28;20039;-67
2021/12/02 09:57:10;;;;;;;5.95;1.00;;;3.30;99.90;;;;;;4970493;28;20050;-66
2021/12/02 09:59:47;;;;;;;1.88;1.00;;;3.30;99.90;;;;;;4967972;28;20046;-66
2021/12/02 10:02:17;;;;;;;1.48;0.80;;;3.30;99.90;;;;;;4943045;28;20039;-67
2021/12/02 10:05:01;;;;;;;1.85;0.80;;;3.40;99.90;;;;;;4968975;28;20122;-66
2021/12/02 10:07:42;;;;;;;1.98;0.80;;;3.40;99.90;;;;;;4968042;28;20061;-66
2021/12/02 10:10:14;;;;;;;4.40;1.00;;;3.50;99.90;;;;;;4983425;28;20052;-66
2021/12/02 10:12:51;;;;;;;2.97;0.90;;;3.50;99.90;;;;;;4982547;28;20051;-66
2021/12/02 10:15:18;;;;;;;1.70;0.75;;;3.50;99.90;;;;;;4972088;28;20050;-66
2021/12/02 10:17:52;;;;;;;5.20;1.10;;;3.50;99.90;;;;;;4971483;28;20047;-66
2021/12/02 10:20:30;;;;;;;2.92;0.93;;;3.50;99.90;;;;;;4972583;28;20047;-66
2021/12/02 10:25:39;;;;;;;2.50;0.82;;;3.60;99.90;;;;;;4971606;28;20054;-66
2021/12/02 10:28:07;;;;;;;4.75;0.85;;;3.60;99.90;;;;;;4978545;28;20118;-66
2021/12/02 10:30:34;;;;;;;2.03;0.60;;;3.60;99.90;;;;;;4975089;28;20089;-66
2021/12/02 10:33:00;;;;;;;7.18;1.20;;;3.60;99.90;;;;;;4987897;28;20086;-66
2021/12/02 10:35:47;;;;;;;4.18;0.88;;;3.60;99.90;;;;;;4988693;28;20078;-66
2021/12/02 10:38:32;;;;;;;1.67;0.63;;;3.60;99.90;;;;;;4970552;28;20138;-66
2021/12/02 10:41:05;;;;;;;2.38;0.63;;;3.70;99.90;;;;;;4963272;28;20046;-66
2021/12/02 10:43:30;;;;;;;2.80;0.63;;;3.80;99.90;;;;;;4979051;28;20051;-66
2021/12/02 10:46:19;;;;;;;1.38;0.45;;;3.90;99.90;;;;;;4999188;28;20050;-66
2021/12/02 10:48:50;;;;;;;2.53;0.65;;;4.00;99.90;;;;;;4953468;28;20082;-66
2021/12/02 10:51:37;;;;;;;4.10;0.98;;;4.10;99.90;;;;;;4956572;28;20107;-66
2021/12/02 10:54:13;;;;;;;4.93;0.75;;;4.20;99.90;;;;;;5015772;28;20039;-66
2021/12/02 10:56:41;;;;;;;1.88;0.68;;;4.20;99.90;;;;;;4971124;28;20171;-65
2021/12/02 10:59:26;;;;;;;1.90;0.80;;;4.20;99.90;;;;;;4968530;28;20035;-65
2021/12/02 11:01:58;;;;;;;1.10;0.63;;;4.30;99.90;;;;;;4991246;28;20062;-66
2021/12/02 11:04:24;;;;;;;2.15;0.60;;;4.30;99.90;;;;;;4968985;28;20066;-65
2021/12/02 11:06:53;;;;;;;2.78;0.60;;;4.30;99.90;;;;;;4970336;28;20054;-66
2021/12/02 11:09:28;;;;;;;2.60;0.80;;;4.40;99.90;;;;;;4956776;28;20527;-66
2021/12/02 11:12:09;;;;;;;1.95;0.60;;;4.50;99.90;;;;;;4966812;28;20074;-65
2021/12/02 11:14:36;;;;;;;2.33;0.90;;;4.70;99.90;;;;;;4983059;28;20054;-66
2021/12/02 11:17:10;;;;;;;2.15;0.75;;;4.80;99.90;;;;;;4970702;28;20134;-65
2021/12/02 11:19:36;;;;;;;4.47;0.90;;;5.00;99.90;;;;;;4965306;28;20513;-67
2021/12/02 11:22:10;;;;;;;3.03;1.35;;;5.50;99.90;;;;;;4971039;28;20050;-66
2021/12/02 11:24:37;;;;;;;3.65;0.75;;;5.00;99.90;;;;;;4965116;28;20050;-66
2021/12/02 11:27:12;;;;;;;2.83;0.65;;;4.70;99.90;;;;;;4972563;28;20088;-66
2021/12/02 11:30:08;;;;;;;1.33;0.50;;;4.30;99.90;;;;;;4968176;28;20131;-66
2021/12/02 11:32:58;;;;;;;3.43;0.53;;;4.00;99.90;;;;;;4984170;28;20173;-66
2021/12/02 11:35:27;;;;;;;2.30;0.65;;;3.80;99.90;;;;;;4959403;28;20082;-66
2021/12/02 11:38:02;;;;;;;2.85;0.65;;;3.60;99.90;;;;;;4966461;28;20073;-66
2021/12/02 11:40:40;;;;;;;1.88;0.98;;;3.50;99.90;;;;;;4972539;28;20039;-66
2021/12/02 11:43:08;;;;;;;1.75;0.80;;;3.30;99.90;;;;;;4958901;28;20047;-66
2021/12/02 11:45:42;;;;;;;1.98;1.10;;;3.20;99.90;;;;;;4967792;28;20131;-66
2021/12/02 11:48:08;;;;;;;3.05;1.25;;;3.10;99.90;;;;;;4973587;28;20066;-66
2021/12/02 11:50:34;;;;;;;3.72;1.10;;;3.00;99.90;;;;;;4969936;28;20492;-65
2021/12/02 11:53:00;;;;;;;1.80;0.95;;;2.90;99.90;;;;;;4966724;28;20407;-66
2021/12/02 11:55:30;;;;;;;1.55;0.60;;;2.90;99.90;;;;;;4971092;28;20047;-66
2021/12/02 11:57:57;;;;;;;1.05;0.50;;;2.90;99.90;;;;;;4969095;28;20082;-66
2021/12/02 12:00:24;;;;;;;1.92;0.40;;;2.90;99.90;;;;;;4969856;28;20534;-66
2021/12/02 12:03:01;;;;;;;2.33;0.77;;;2.90;99.90;;;;;;4972243;28;20039;-66
2021/12/02 12:05:45;;;;;;;0.95;0.50;;;2.80;99.90;;;;;;5017077;28;20047;-66
2021/12/02 12:08:34;;;;;;;1.90;0.47;;;2.80;99.90;;;;;;4965841;28;20087;-66
2021/12/02 12:11:27;;;;;;;1.90;0.70;;;2.80;99.90;;;;;;4966479;28;20078;-65
2021/12/02 12:13:59;;;;;;;2.13;0.50;;;2.90;99.90;;;;;;4961215;28;20043;-66
2021/12/02 12:16:37;;;;;;;2.40;0.60;;;3.00;99.90;;;;;;4969956;28;20092;-66
2021/12/02 12:19:26;;;;;;;2.05;0.82;;;3.10;99.90;;;;;;4966248;28;20046;-66
2021/12/02 12:22:01;;;;;;;1.58;0.40;;;3.20;99.90;;;;;;4969098;28;20480;-66
2021/12/02 12:24:53;;;;;;;1.08;0.63;;;3.30;99.90;;;;;;4970786;28;20042;-66
2021/12/02 12:27:22;;;;;;;3.00;0.47;;;3.30;99.90;;;;;;4974113;28;20114;-66
2021/12/02 12:30:19;;;;;;;1.60;0.40;;;3.50;99.90;;;;;;4970838;28;20430;-66
2021/12/02 12:35:30;;;;;;;2.08;1.00;;;3.40;99.90;;;;;;4970533;28;20057;-66
2021/12/02 12:37:58;;;;;;;1.88;0.88;;;3.40;99.90;;;;;;4962163;28;20042;-66
2021/12/02 12:40:46;;;;;;;2.33;1.05;;;3.20;99.90;;;;;;4974949;28;20079;-66
2021/12/02 12:43:11;;;;;;;2.20;0.80;;;3.10;99.90;;;;;;4965609;28;20078;-66
2021/12/02 12:45:42;;;;;;;2.53;0.85;;;3.00;99.90;;;;;;5003524;28;20521;-66
2021/12/02 12:48:25;;;;;;;1.40;0.40;;;3.00;99.90;;;;;;4974574;28;20113;-66
2021/12/02 12:50:51;;;;;;;1.55;0.50;;;2.90;99.90;;;;;;4966143;28;20418;-66
2021/12/02 12:53:22;;;;;;;0.82;0.50;;;2.90;99.90;;;;;;4966488;28;20471;-66
2021/12/02 12:55:49;;;;;;;1.38;0.50;;;2.90;99.90;;;;;;4968645;28;20099;-66
2021/12/02 12:58:20;;;;;;;0.57;0.30;;;2.90;99.90;;;;;;4967933;28;20045;-66
2021/12/02 13:00:51;;;;;;;1.92;0.50;;;2.80;99.90;;;;;;4967227;28;20085;-66
2021/12/02 13:06:13;;;;;;;2.13;0.40;;;2.70;99.90;;;;;;4970133;28;20530;-66
2021/12/02 13:08:53;;;;;;;0.82;0.40;;;2.70;99.90;;;;;;4964920;28;20047;-66
2021/12/02 13:11:22;;;;;;;1.27;0.52;;;2.70;99.90;;;;;;4965949;28;20042;-66
2021/12/02 13:13:49;;;;;;;0.55;0.38;;;2.70;99.90;;;;;;4968106;28;20058;-65
2021/12/02 13:16:16;;;;;;;0.73;0.40;;;2.70;99.90;;;;;;4970955;28;20038;-66
2021/12/02 13:19:10;;;;;;;2.03;0.50;;;2.80;99.90;;;;;;4971515;28;20120;-66
2021/12/02 13:21:36;;;;;;;3.00;0.55;;;2.70;99.90;;;;;;4971557;28;20061;-66
2021/12/02 13:24:12;;;;;;;1.45;0.60;;;2.70;99.90;;;;;;4960380;28;20048;-66
2021/12/02 13:26:53;;;;;;;1.23;0.40;;;2.70;99.90;;;;;;4966067;28;20050;-65
2021/12/02 13:29:25;;;;;;;1.98;0.43;;;2.80;99.90;;;;;;4987202;28;20053;-66
2021/12/02 13:31:57;;;;;;;1.02;0.40;;;2.80;99.90;;;;;;4999813;28;20153;-66
2021/12/02 13:34:25;;;;;;;0.28;0.28;;;2.80;99.90;;;;;;4985749;28;20045;-66
2021/12/02 13:36:55;;;;;;;0.75;0.40;;;2.80;99.90;;;;;;4996528;28;20161;-65
2021/12/02 13:39:33;;;;;;;3.40;0.60;;;2.80;99.90;;;;;;4993643;28;20094;-66